Saturday, October 20, 2018, 10:09 PM EDT
Back to Local

KALB, Albany International Airport

Location: Latham, NY, United States Lat: 42.75
Local Time: 10:09 PM EDT ( 2:09 GMT) Lon: -73.8
Time Zone: US/Eastern Elev: 285 ft

Show me the last for .
Show Decoded

2018-10-20 21:51 METAR KALB 210151Z 23004KT 10SM OVC095 09/06 A2962 RMK AO2 SLP031 T00890056 =
2018-10-20 20:51 METAR KALB 210051Z 22005KT 10SM FEW045 OVC080 09/06 A2962 RMK AO2 RAE20 SLP030
                 P0000 T00890061 =
2018-10-20 19:51 METAR KALB 202351Z 24009KT 10SM -RA OVC045 10/06 A2964 RMK AO2 SLP035 P0001
                 60001 T01000056 10167 20094 53021 =
2018-10-20 18:51 METAR KALB 202251Z 27006KT 10SM -RA BKN060 BKN090 BKN130 12/03 A2960 RMK AO2
                 RAB51 SLP025 PCPN VRY LGT P0000 T01170033 =
2018-10-20 17:51 METAR KALB 202151Z 21003KT 10SM FEW075 FEW100 BKN130 13/02 A2958 RMK AO2 SLP017
                 T01280022 =
2018-10-20 16:51 METAR KALB 202051Z 29010KT 10SM FEW075 FEW100 14/02 A2957 RMK AO2 SLP014
                 T01440017 58013 =
2018-10-20 15:51 METAR KALB 201951Z 32010KT 10SM FEW047 SCT065 BKN090 14/02 A2959 RMK AO2 SLP019
                 BKN V SCT T01440022 =
2018-10-20 14:51 METAR KALB 201851Z 26007KT 10SM FEW047 BKN070 BKN085 14/02 A2960 RMK AO2 SLP022
                 T01440022 =
2018-10-20 13:51 METAR KALB 201751Z 27013G20KT 10SM FEW044 SCT060 BKN090 16/04 A2961 RMK AO2
                 SLP027 60000 T01610044 10167 20117 58014 =
2018-10-20 12:51 METAR KALB 201651Z 25007KT 10SM SCT038 BKN060 BKN090 15/07 A2964 RMK AO2
                 RAB31E34 SLP037 VCSH E-SE P0000 T01500072 =
2018-10-20 11:51 METAR KALB 201551Z 31008KT 10SM SCT041 BKN049 BKN065 14/07 A2965 RMK AO2
                 RAB22E44 SLP041 VCSH NE-E SHRA DSNT SW P0000 T01440072 =
2018-10-20 10:51 METAR KALB 201451Z 23007KT 10SM FEW038 BKN041 OVC049 14/07 A2965 RMK AO2 SLP041
                 OCNL BINOVC PRESENT WX VCSH T01390072 50003 =
2018-10-20 09:51 METAR KALB 201351Z 19008KT 10SM FEW037 BKN040 BKN060 13/08 A2966 RMK AO2 SLP042
                 SHRA DSNT W-NW T01330078 =
2018-10-20 08:51 METAR KALB 201251Z 16009KT 10SM FEW037 BKN046 OVC060 12/07 A2965 RMK AO2 SLP041
                 OCNL BINOVC T01170072 =
2018-10-20 07:51 METAR KALB 201151Z 16008KT 10SM FEW037 BKN041 OVC060 12/07 A2964 RMK AO2 SLP038
                 OCNL BINOVC 60000 T01170072 10117 20111 55001 =
2018-10-20 06:51 METAR KALB 201051Z 17006KT 10SM FEW035 SCT043 OVC055 11/07 A2964 RMK AO2 SLP036
                 PRESENT WX VCSH T01110067 =
2018-10-20 05:51 METAR KALB 200951Z 18009KT 10SM BKN042 OVC050 12/06 A2964 RMK AO2 SLP035 PRESENT
                 WX VCSH T01170061 =
2018-10-20 04:51 METAR KALB 200851Z 19010KT 10SM OVC046 12/06 A2965 RMK AO2 SLP039 PRESENT WX
                 VCSH 60000 T01170056 56033 =
2018-10-20 03:51 METAR KALB 200751Z 18009KT 10SM BKN055 OVC070 12/05 A2967 RMK AO2 RAE02 SLP046
                 PRESENT WX VCSH P0000 T01170050 =
2018-10-20 02:51 METAR KALB 200651Z 18010KT 10SM -RA BKN075 OVC090 12/04 A2971 RMK AO2
                 RAB04E27B46 SLP061 PCPN VRY LGT P0000 T01170044 =
2018-10-20 01:51 METAR KALB 200551Z 18010G20KT 10SM FEW070 OVC100 11/04 A2974 RMK AO2 SLP072
                 PRESENT WX VCSH 60000 T01110039 10128 20111 56031 =
2018-10-20 00:51 METAR KALB 200451Z 17010KT 10SM FEW085 BKN100 OVC120 12/03 A2977 RMK AO2
                 RAB37E43 SLP081 PRESENT WX VCSH P0000 T01170028 401561017 =
2018-10-19 23:51 METAR KALB 200351Z 16008KT 10SM FEW110 BKN130 OVC160 12/02 A2979 RMK AO2 SLP089
                 T01170017 =
2018-10-19 22:51 METAR KALB 200251Z 17009KT 10SM FEW110 BKN160 OVC250 12/01 A2984 RMK AO2 SLP105
                 T01170011 56021 =

Support USWX by starting your Amazon purchase here.